sensor_id;sensor_type;location;lat;lon;timestamp;temperature;humidity
3298;DHT22;1661;53.572;10.174;2023-03-23T00:01:10;12.70;82.20
3298;DHT22;1661;53.572;10.174;2023-03-23T00:03:40;12.70;82.60
3298;DHT22;1661;53.572;10.174;2023-03-23T00:06:08;12.60;83.30
3298;DHT22;1661;53.572;10.174;2023-03-23T00:08:36;12.60;83.70
3298;DHT22;1661;53.572;10.174;2023-03-23T00:11:10;12.60;84.00
3298;DHT22;1661;53.572;10.174;2023-03-23T00:13:40;12.60;84.40
3298;DHT22;1661;53.572;10.174;2023-03-23T00:16:07;12.60;84.70
3298;DHT22;1661;53.572;10.174;2023-03-23T00:18:44;12.60;84.90
3298;DHT22;1661;53.572;10.174;2023-03-23T00:21:11;12.60;85.10
3298;DHT22;1661;53.572;10.174;2023-03-23T00:23:37;12.60;85.40
3298;DHT22;1661;53.572;10.174;2023-03-23T00:26:05;12.50;85.70
3298;DHT22;1661;53.572;10.174;2023-03-23T00:28:32;12.50;86.50
3298;DHT22;1661;53.572;10.174;2023-03-23T00:31:01;12.30;87.00
3298;DHT22;1661;53.572;10.174;2023-03-23T00:33:30;12.30;87.40
3298;DHT22;1661;53.572;10.174;2023-03-23T00:36:00;12.40;87.60
3298;DHT22;1661;53.572;10.174;2023-03-23T00:38:27;12.30;88.20
3298;DHT22;1661;53.572;10.174;2023-03-23T00:40:53;12.20;88.50
3298;DHT22;1661;53.572;10.174;2023-03-23T00:43:24;12.20;88.90
3298;DHT22;1661;53.572;10.174;2023-03-23T00:45:55;12.00;89.60
3298;DHT22;1661;53.572;10.174;2023-03-23T00:48:23;12.00;90.20
3298;DHT22;1661;53.572;10.174;2023-03-23T00:50:51;12.00;90.40
3298;DHT22;1661;53.572;10.174;2023-03-23T00:53:19;11.90;90.80
3298;DHT22;1661;53.572;10.174;2023-03-23T00:55:48;11.80;91.10
3298;DHT22;1661;53.572;10.174;2023-03-23T00:58:15;11.80;91.30
3298;DHT22;1661;53.572;10.174;2023-03-23T01:00:43;11.70;91.80
3298;DHT22;1661;53.572;10.174;2023-03-23T01:03:10;11.70;91.90
3298;DHT22;1661;53.572;10.174;2023-03-23T01:05:38;11.60;92.50
3298;DHT22;1661;53.572;10.174;2023-03-23T01:08:06;11.50;93.10
3298;DHT22;1661;53.572;10.174;2023-03-23T01:10:35;11.40;93.70
3298;DHT22;1661;53.572;10.174;2023-03-23T01:13:04;11.50;93.60
3298;DHT22;1661;53.572;10.174;2023-03-23T01:15:31;11.50;93.40
3298;DHT22;1661;53.572;10.174;2023-03-23T01:17:58;11.40;93.90
3298;DHT22;1661;53.572;10.174;2023-03-23T01:20:25;11.50;93.60
3298;DHT22;1661;53.572;10.174;2023-03-23T01:22:54;11.40;93.60
3298;DHT22;1661;53.572;10.174;2023-03-23T01:25:26;11.40;93.80
3298;DHT22;1661;53.572;10.174;2023-03-23T01:27:54;11.40;93.70
3298;DHT22;1661;53.572;10.174;2023-03-23T01:30:22;11.50;93.70
3298;DHT22;1661;53.572;10.174;2023-03-23T01:32:50;11.40;93.70
3298;DHT22;1661;53.572;10.174;2023-03-23T01:35:18;11.50;93.60
3298;DHT22;1661;53.572;10.174;2023-03-23T01:37:45;11.40;93.70
3298;DHT22;1661;53.572;10.174;2023-03-23T01:40:14;11.40;93.60
3298;DHT22;1661;53.572;10.174;2023-03-23T01:42:41;11.50;93.80
3298;DHT22;1661;53.572;10.174;2023-03-23T01:45:33;11.50;93.70
3298;DHT22;1661;53.572;10.174;2023-03-23T01:48:10;11.40;93.90
3298;DHT22;1661;53.572;10.174;2023-03-23T01:50:44;11.40;94.00
3298;DHT22;1661;53.572;10.174;2023-03-23T01:53:12;11.40;94.00
3298;DHT22;1661;53.572;10.174;2023-03-23T01:55:41;11.40;93.90
3298;DHT22;1661;53.572;10.174;2023-03-23T01:58:11;11.40;93.90
3298;DHT22;1661;53.572;10.174;2023-03-23T02:00:39;11.40;94.20
3298;DHT22;1661;53.572;10.174;2023-03-23T02:03:09;11.40;94.30
3298;DHT22;1661;53.572;10.174;2023-03-23T02:05:40;11.40;94.40
3298;DHT22;1661;53.572;10.174;2023-03-23T02:08:08;11.30;94.50
3298;DHT22;1661;53.572;10.174;2023-03-23T02:10:37;11.30;94.90
3298;DHT22;1661;53.572;10.174;2023-03-23T02:13:06;11.20;95.40
3298;DHT22;1661;53.572;10.174;2023-03-23T02:15:42;11.20;95.60
3298;DHT22;1661;53.572;10.174;2023-03-23T02:18:18;11.20;95.50
3298;DHT22;1661;53.572;10.174;2023-03-23T02:21:07;11.30;95.50
3298;DHT22;1661;53.572;10.174;2023-03-23T02:24:04;11.30;95.60
3298;DHT22;1661;53.572;10.174;2023-03-23T02:26:50;11.20;95.80
3298;DHT22;1661;53.572;10.174;2023-03-23T02:29:44;11.20;96.00
3298;DHT22;1661;53.572;10.174;2023-03-23T02:32:39;11.20;96.00
3298;DHT22;1661;53.572;10.174;2023-03-23T02:35:17;11.30;95.90
3298;DHT22;1661;53.572;10.174;2023-03-23T02:37:48;11.30;95.80
3298;DHT22;1661;53.572;10.174;2023-03-23T02:40:18;11.40;95.80
3298;DHT22;1661;53.572;10.174;2023-03-23T02:42:51;11.40;95.80
3298;DHT22;1661;53.572;10.174;2023-03-23T02:45:21;11.40;95.90
3298;DHT22;1661;53.572;10.174;2023-03-23T02:47:52;11.30;96.10
3298;DHT22;1661;53.572;10.174;2023-03-23T02:50:23;11.40;96.10
3298;DHT22;1661;53.572;10.174;2023-03-23T02:52:53;11.50;95.80
3298;DHT22;1661;53.572;10.174;2023-03-23T02:55:22;11.50;95.90
3298;DHT22;1661;53.572;10.174;2023-03-23T02:57:51;11.40;95.80
3298;DHT22;1661;53.572;10.174;2023-03-23T03:00:19;11.40;95.90
3298;DHT22;1661;53.572;10.174;2023-03-23T03:02:47;11.50;95.90
3298;DHT22;1661;53.572;10.174;2023-03-23T03:05:28;11.50;95.80
3298;DHT22;1661;53.572;10.174;2023-03-23T03:08:13;11.50;95.70
3298;DHT22;1661;53.572;10.174;2023-03-23T03:10:49;11.60;95.50
3298;DHT22;1661;53.572;10.174;2023-03-23T03:13:25;11.50;95.70
3298;DHT22;1661;53.572;10.174;2023-03-23T03:15:59;11.50;95.80
3298;DHT22;1661;53.572;10.174;2023-03-23T03:18:30;11.60;95.60
3298;DHT22;1661;53.572;10.174;2023-03-23T03:21:02;11.60;95.60
3298;DHT22;1661;53.572;10.174;2023-03-23T03:23:32;11.60;95.60
3298;DHT22;1661;53.572;10.174;2023-03-23T03:26:01;11.60;95.50
3298;DHT22;1661;53.572;10.174;2023-03-23T03:28:31;11.60;95.30
3298;DHT22;1661;53.572;10.174;2023-03-23T03:31:02;11.60;95.50
3298;DHT22;1661;53.572;10.174;2023-03-23T03:33:30;11.60;95.40
3298;DHT22;1661;53.572;10.174;2023-03-23T03:36:02;11.60;95.30
3298;DHT22;1661;53.572;10.174;2023-03-23T03:38:41;11.70;95.10
3298;DHT22;1661;53.572;10.174;2023-03-23T03:41:08;11.70;95.10
3298;DHT22;1661;53.572;10.174;2023-03-23T03:43:35;11.70;95.00
3298;DHT22;1661;53.572;10.174;2023-03-23T03:46:01;11.70;94.90
3298;DHT22;1661;53.572;10.174;2023-03-23T03:48:28;11.70;94.90
3298;DHT22;1661;53.572;10.174;2023-03-23T03:50:55;11.70;94.90
3298;DHT22;1661;53.572;10.174;2023-03-23T03:53:23;11.70;94.70
3298;DHT22;1661;53.572;10.174;2023-03-23T03:55:50;11.70;94.60
3298;DHT22;1661;53.572;10.174;2023-03-23T03:58:21;11.70;94.50
3298;DHT22;1661;53.572;10.174;2023-03-23T04:00:48;11.70;94.40
3298;DHT22;1661;53.572;10.174;2023-03-23T04:03:15;11.70;94.60
3298;DHT22;1661;53.572;10.174;2023-03-23T04:05:42;11.70;94.50
3298;DHT22;1661;53.572;10.174;2023-03-23T04:08:10;11.80;94.40
3298;DHT22;1661;53.572;10.174;2023-03-23T04:10:38;11.80;94.20
3298;DHT22;1661;53.572;10.174;2023-03-23T04:13:06;11.80;94.30
3298;DHT22;1661;53.572;10.174;2023-03-23T04:15:32;11.90;94.30
3298;DHT22;1661;53.572;10.174;2023-03-23T04:17:59;11.90;94.00
3298;DHT22;1661;53.572;10.174;2023-03-23T04:20:26;11.90;94.00
3298;DHT22;1661;53.572;10.174;2023-03-23T04:22:53;11.90;93.90
3298;DHT22;1661;53.572;10.174;2023-03-23T04:25:21;11.90;93.80
3298;DHT22;1661;53.572;10.174;2023-03-23T04:27:50;11.90;93.80
3298;DHT22;1661;53.572;10.174;2023-03-23T04:30:19;12.00;93.60
3298;DHT22;1661;53.572;10.174;2023-03-23T04:32:47;12.00;93.50
3298;DHT22;1661;53.572;10.174;2023-03-23T04:35:17;12.00;93.40
3298;DHT22;1661;53.572;10.174;2023-03-23T04:37:45;12.10;93.20
3298;DHT22;1661;53.572;10.174;2023-03-23T04:40:13;12.00;93.20
3298;DHT22;1661;53.572;10.174;2023-03-23T04:42:41;12.10;93.20
3298;DHT22;1661;53.572;10.174;2023-03-23T04:45:13;12.10;93.00
3298;DHT22;1661;53.572;10.174;2023-03-23T04:47:41;12.10;92.80
3298;DHT22;1661;53.572;10.174;2023-03-23T04:50:19;12.20;92.80
3298;DHT22;1661;53.572;10.174;2023-03-23T04:52:47;12.20;92.50
3298;DHT22;1661;53.572;10.174;2023-03-23T04:55:14;12.30;92.30
3298;DHT22;1661;53.572;10.174;2023-03-23T04:57:41;12.30;92.20
3298;DHT22;1661;53.572;10.174;2023-03-23T05:00:08;12.30;92.00
3298;DHT22;1661;53.572;10.174;2023-03-23T05:02:39;12.30;91.90
3298;DHT22;1661;53.572;10.174;2023-03-23T05:05:06;12.20;91.90
3298;DHT22;1661;53.572;10.174;2023-03-23T05:07:33;12.20;91.80
3298;DHT22;1661;53.572;10.174;2023-03-23T05:10:00;12.20;91.70
3298;DHT22;1661;53.572;10.174;2023-03-23T05:12:27;12.10;91.50
3298;DHT22;1661;53.572;10.174;2023-03-23T05:14:54;12.00;91.80
3298;DHT22;1661;53.572;10.174;2023-03-23T05:17:21;12.00;91.80
3298;DHT22;1661;53.572;10.174;2023-03-23T05:19:51;12.00;91.70
3298;DHT22;1661;53.572;10.174;2023-03-23T05:22:18;12.00;91.80
3298;DHT22;1661;53.572;10.174;2023-03-23T05:24:46;12.00;91.70
3298;DHT22;1661;53.572;10.174;2023-03-23T05:27:14;12.00;91.80
3298;DHT22;1661;53.572;10.174;2023-03-23T05:29:43;12.00;91.80
3298;DHT22;1661;53.572;10.174;2023-03-23T05:32:11;12.10;91.70
3298;DHT22;1661;53.572;10.174;2023-03-23T05:34:38;12.00;91.90
3298;DHT22;1661;53.572;10.174;2023-03-23T05:37:07;12.10;91.80
3298;DHT22;1661;53.572;10.174;2023-03-23T05:39:35;12.20;91.70
3298;DHT22;1661;53.572;10.174;2023-03-23T05:42:03;12.10;91.70
3298;DHT22;1661;53.572;10.174;2023-03-23T05:44:30;12.10;91.80
3298;DHT22;1661;53.572;10.174;2023-03-23T05:46:57;12.20;91.60
3298;DHT22;1661;53.572;10.174;2023-03-23T05:49:24;12.20;91.50
3298;DHT22;1661;53.572;10.174;2023-03-23T05:51:52;12.20;91.20
3298;DHT22;1661;53.572;10.174;2023-03-23T05:54:20;12.20;91.40
3298;DHT22;1661;53.572;10.174;2023-03-23T05:56:47;12.20;91.20
3298;DHT22;1661;53.572;10.174;2023-03-23T05:59:14;12.20;91.30
3298;DHT22;1661;53.572;10.174;2023-03-23T06:01:42;12.20;91.20
3298;DHT22;1661;53.572;10.174;2023-03-23T06:04:08;12.20;90.80
3298;DHT22;1661;53.572;10.174;2023-03-23T06:06:37;12.20;91.00
3298;DHT22;1661;53.572;10.174;2023-03-23T06:09:04;12.20;90.80
3298;DHT22;1661;53.572;10.174;2023-03-23T06:11:33;12.20;90.80
3298;DHT22;1661;53.572;10.174;2023-03-23T06:14:00;12.30;90.50
3298;DHT22;1661;53.572;10.174;2023-03-23T06:16:28;12.30;90.30
3298;DHT22;1661;53.572;10.174;2023-03-23T06:18:55;12.30;90.20
3298;DHT22;1661;53.572;10.174;2023-03-23T06:21:22;12.30;90.00
3298;DHT22;1661;53.572;10.174;2023-03-23T06:23:49;12.30;90.10
3298;DHT22;1661;53.572;10.174;2023-03-23T06:26:18;12.30;90.20
3298;DHT22;1661;53.572;10.174;2023-03-23T06:28:47;12.30;90.20
3298;DHT22;1661;53.572;10.174;2023-03-23T06:31:14;12.20;90.20
3298;DHT22;1661;53.572;10.174;2023-03-23T06:33:43;12.20;90.20
3298;DHT22;1661;53.572;10.174;2023-03-23T06:36:10;12.10;90.50
3298;DHT22;1661;53.572;10.174;2023-03-23T06:38:37;12.10;90.40
3298;DHT22;1661;53.572;10.174;2023-03-23T06:41:05;12.00;90.60
3298;DHT22;1661;53.572;10.174;2023-03-23T06:43:32;12.00;90.80
3298;DHT22;1661;53.572;10.174;2023-03-23T06:46:02;12.10;90.80
3298;DHT22;1661;53.572;10.174;2023-03-23T06:48:29;12.10;90.50
3298;DHT22;1661;53.572;10.174;2023-03-23T06:50:56;12.20;90.50
3298;DHT22;1661;53.572;10.174;2023-03-23T06:53:23;12.20;90.30
3298;DHT22;1661;53.572;10.174;2023-03-23T06:55:50;12.20;90.10
3298;DHT22;1661;53.572;10.174;2023-03-23T06:58:17;12.30;90.00
3298;DHT22;1661;53.572;10.174;2023-03-23T07:00:44;12.20;89.80
3298;DHT22;1661;53.572;10.174;2023-03-23T07:03:12;12.20;89.80
3298;DHT22;1661;53.572;10.174;2023-03-23T07:05:39;12.30;89.50
3298;DHT22;1661;53.572;10.174;2023-03-23T07:08:06;12.30;89.50
3298;DHT22;1661;53.572;10.174;2023-03-23T07:10:33;12.30;89.50
3298;DHT22;1661;53.572;10.174;2023-03-23T07:12:59;12.30;89.30
3298;DHT22;1661;53.572;10.174;2023-03-23T07:15:27;12.20;89.20
3298;DHT22;1661;53.572;10.174;2023-03-23T07:17:54;12.30;89.40
3298;DHT22;1661;53.572;10.174;2023-03-23T07:20:22;12.50;89.40
3298;DHT22;1661;53.572;10.174;2023-03-23T07:22:49;12.60;88.80
3298;DHT22;1661;53.572;10.174;2023-03-23T07:25:17;12.60;88.30
3298;DHT22;1661;53.572;10.174;2023-03-23T07:27:44;12.60;88.10
3298;DHT22;1661;53.572;10.174;2023-03-23T07:30:12;12.60;88.00
3298;DHT22;1661;53.572;10.174;2023-03-23T07:32:39;12.70;88.00
3298;DHT22;1661;53.572;10.174;2023-03-23T07:35:06;12.80;87.40
3298;DHT22;1661;53.572;10.174;2023-03-23T07:37:36;12.80;87.20
3298;DHT22;1661;53.572;10.174;2023-03-23T07:40:03;12.80;86.10
3298;DHT22;1661;53.572;10.174;2023-03-23T07:42:40;12.80;86.80
3298;DHT22;1661;53.572;10.174;2023-03-23T07:45:08;12.90;86.40
3298;DHT22;1661;53.572;10.174;2023-03-23T07:47:35;13.00;86.40
3298;DHT22;1661;53.572;10.174;2023-03-23T07:50:02;13.00;85.80
3298;DHT22;1661;53.572;10.174;2023-03-23T07:52:29;13.00;86.10
3298;DHT22;1661;53.572;10.174;2023-03-23T07:54:58;12.90;85.50
3298;DHT22;1661;53.572;10.174;2023-03-23T07:57:26;13.00;85.40
3298;DHT22;1661;53.572;10.174;2023-03-23T07:59:53;13.00;85.20
3298;DHT22;1661;53.572;10.174;2023-03-23T08:02:21;13.00;85.00
3298;DHT22;1661;53.572;10.174;2023-03-23T08:04:48;13.00;85.30
3298;DHT22;1661;53.572;10.174;2023-03-23T08:07:15;13.10;85.10
3298;DHT22;1661;53.572;10.174;2023-03-23T08:09:44;13.10;84.90
3298;DHT22;1661;53.572;10.174;2023-03-23T08:12:13;13.10;85.30
3298;DHT22;1661;53.572;10.174;2023-03-23T08:14:40;13.20;85.60
3298;DHT22;1661;53.572;10.174;2023-03-23T08:17:07;13.20;85.50
3298;DHT22;1661;53.572;10.174;2023-03-23T08:19:35;13.30;85.10
3298;DHT22;1661;53.572;10.174;2023-03-23T08:22:03;13.20;85.00
3298;DHT22;1661;53.572;10.174;2023-03-23T08:24:30;13.30;85.50
3298;DHT22;1661;53.572;10.174;2023-03-23T08:26:58;13.30;85.00
3298;DHT22;1661;53.572;10.174;2023-03-23T08:29:26;13.40;84.50
3298;DHT22;1661;53.572;10.174;2023-03-23T08:31:53;13.20;85.50
3298;DHT22;1661;53.572;10.174;2023-03-23T08:34:20;13.20;86.20
3298;DHT22;1661;53.572;10.174;2023-03-23T08:36:48;13.20;86.70
3298;DHT22;1661;53.572;10.174;2023-03-23T08:39:17;13.20;86.10
3298;DHT22;1661;53.572;10.174;2023-03-23T08:41:44;13.00;87.00
3298;DHT22;1661;53.572;10.174;2023-03-23T08:44:11;12.70;87.20
3298;DHT22;1661;53.572;10.174;2023-03-23T08:46:40;12.60;88.10
3298;DHT22;1661;53.572;10.174;2023-03-23T08:49:08;12.50;89.50
3298;DHT22;1661;53.572;10.174;2023-03-23T08:51:35;12.30;87.00
3298;DHT22;1661;53.572;10.174;2023-03-23T08:54:02;12.30;86.80
3298;DHT22;1661;53.572;10.174;2023-03-23T08:56:29;12.30;87.20
3298;DHT22;1661;53.572;10.174;2023-03-23T08:58:56;12.40;87.60
3298;DHT22;1661;53.572;10.174;2023-03-23T09:01:23;12.50;88.70
3298;DHT22;1661;53.572;10.174;2023-03-23T09:03:51;12.50;89.50
3298;DHT22;1661;53.572;10.174;2023-03-23T09:06:18;12.60;90.00
3298;DHT22;1661;53.572;10.174;2023-03-23T09:08:44;12.70;90.50
3298;DHT22;1661;53.572;10.174;2023-03-23T09:11:11;12.80;89.40
3298;DHT22;1661;53.572;10.174;2023-03-23T09:13:39;12.90;89.90
3298;DHT22;1661;53.572;10.174;2023-03-23T09:16:07;12.80;88.00
3298;DHT22;1661;53.572;10.174;2023-03-23T09:18:34;12.90;87.90
3298;DHT22;1661;53.572;10.174;2023-03-23T09:21:03;13.10;87.60
3298;DHT22;1661;53.572;10.174;2023-03-23T09:23:30;13.00;85.40
3298;DHT22;1661;53.572;10.174;2023-03-23T09:25:59;13.00;85.50
3298;DHT22;1661;53.572;10.174;2023-03-23T09:28:27;13.00;84.80
3298;DHT22;1661;53.572;10.174;2023-03-23T09:30:55;13.00;84.70
3298;DHT22;1661;53.572;10.174;2023-03-23T09:33:23;13.00;84.50
3298;DHT22;1661;53.572;10.174;2023-03-23T09:35:50;13.00;84.10
3298;DHT22;1661;53.572;10.174;2023-03-23T09:38:19;12.90;83.20
3298;DHT22;1661;53.572;10.174;2023-03-23T09:40:48;12.90;83.50
3298;DHT22;1661;53.572;10.174;2023-03-23T09:46:35;13.10;83.40
3298;DHT22;1661;53.572;10.174;2023-03-23T09:49:10;13.00;81.80
3298;DHT22;1661;53.572;10.174;2023-03-23T09:51:42;13.00;82.20
3298;DHT22;1661;53.572;10.174;2023-03-23T09:54:17;13.10;82.00
3298;DHT22;1661;53.572;10.174;2023-03-23T09:56:45;13.00;82.10
3298;DHT22;1661;53.572;10.174;2023-03-23T09:59:18;13.00;82.30
3298;DHT22;1661;53.572;10.174;2023-03-23T10:01:48;13.10;83.20
3298;DHT22;1661;53.572;10.174;2023-03-23T10:04:24;13.30;81.30
3298;DHT22;1661;53.572;10.174;2023-03-23T10:06:58;13.40;81.70
3298;DHT22;1661;53.572;10.174;2023-03-23T10:09:28;13.50;80.90
3298;DHT22;1661;53.572;10.174;2023-03-23T10:12:00;13.70;80.30
3298;DHT22;1661;53.572;10.174;2023-03-23T10:14:39;13.90;80.30
3298;DHT22;1661;53.572;10.174;2023-03-23T10:17:14;13.90;78.00
3298;DHT22;1661;53.572;10.174;2023-03-23T10:19:47;14.00;78.20
3298;DHT22;1661;53.572;10.174;2023-03-23T10:22:20;14.10;77.70
3298;DHT22;1661;53.572;10.174;2023-03-23T10:24:51;14.20;78.80
3298;DHT22;1661;53.572;10.174;2023-03-23T10:27:26;14.20;77.30
3298;DHT22;1661;53.572;10.174;2023-03-23T10:29:58;14.30;76.70
3298;DHT22;1661;53.572;10.174;2023-03-23T10:32:41;14.50;78.00
3298;DHT22;1661;53.572;10.174;2023-03-23T10:35:13;14.70;76.70
3298;DHT22;1661;53.572;10.174;2023-03-23T10:37:45;14.80;75.90
3298;DHT22;1661;53.572;10.174;2023-03-23T10:40:17;14.80;74.60
3298;DHT22;1661;53.572;10.174;2023-03-23T10:42:46;14.60;74.40
3298;DHT22;1661;53.572;10.174;2023-03-23T10:45:17;14.60;75.30
3298;DHT22;1661;53.572;10.174;2023-03-23T10:47:51;14.60;75.00
3298;DHT22;1661;53.572;10.174;2023-03-23T10:50:23;14.40;74.50
3298;DHT22;1661;53.572;10.174;2023-03-23T10:52:52;14.30;75.00
3298;DHT22;1661;53.572;10.174;2023-03-23T10:55:23;14.20;75.10
3298;DHT22;1661;53.572;10.174;2023-03-23T10:58:00;14.20;75.80
3298;DHT22;1661;53.572;10.174;2023-03-23T11:00:29;14.20;75.60
3298;DHT22;1661;53.572;10.174;2023-03-23T11:03:03;14.10;75.50
3298;DHT22;1661;53.572;10.174;2023-03-23T11:05:37;14.30;76.00
3298;DHT22;1661;53.572;10.174;2023-03-23T11:08:11;14.20;75.10
3298;DHT22;1661;53.572;10.174;2023-03-23T11:10:42;14.20;75.60
3298;DHT22;1661;53.572;10.174;2023-03-23T11:13:13;14.20;74.70
3298;DHT22;1661;53.572;10.174;2023-03-23T11:15:41;14.20;74.90
3298;DHT22;1661;53.572;10.174;2023-03-23T11:18:11;14.20;74.90
3298;DHT22;1661;53.572;10.174;2023-03-23T11:20:40;14.20;76.10
3298;DHT22;1661;53.572;10.174;2023-03-23T11:23:17;14.20;75.10
3298;DHT22;1661;53.572;10.174;2023-03-23T11:26:08;14.30;75.40
3298;DHT22;1661;53.572;10.174;2023-03-23T11:28:37;14.30;76.00
3298;DHT22;1661;53.572;10.174;2023-03-23T11:31:06;14.40;75.70
3298;DHT22;1661;53.572;10.174;2023-03-23T11:33:38;14.50;75.10
3298;DHT22;1661;53.572;10.174;2023-03-23T11:36:06;14.40;75.70
3298;DHT22;1661;53.572;10.174;2023-03-23T11:38:34;14.50;75.70
3298;DHT22;1661;53.572;10.174;2023-03-23T11:41:01;14.40;75.30
3298;DHT22;1661;53.572;10.174;2023-03-23T11:43:39;14.50;75.50
3298;DHT22;1661;53.572;10.174;2023-03-23T11:46:14;14.60;75.00
3298;DHT22;1661;53.572;10.174;2023-03-23T11:48:49;14.60;75.70
3298;DHT22;1661;53.572;10.174;2023-03-23T11:51:20;14.80;75.60
3298;DHT22;1661;53.572;10.174;2023-03-23T11:53:53;14.90;74.70
3298;DHT22;1661;53.572;10.174;2023-03-23T11:56:24;14.80;73.90
3298;DHT22;1661;53.572;10.174;2023-03-23T11:58:55;14.80;73.60
3298;DHT22;1661;53.572;10.174;2023-03-23T12:01:32;14.80;74.10
3298;DHT22;1661;53.572;10.174;2023-03-23T12:04:33;14.90;74.50
3298;DHT22;1661;53.572;10.174;2023-03-23T12:07:15;14.90;74.00
3298;DHT22;1661;53.572;10.174;2023-03-23T12:09:56;14.80;74.20
3298;DHT22;1661;53.572;10.174;2023-03-23T12:12:33;14.80;73.80
3298;DHT22;1661;53.572;10.174;2023-03-23T12:15:12;14.60;73.90
3298;DHT22;1661;53.572;10.174;2023-03-23T12:17:58;14.60;74.10
3298;DHT22;1661;53.572;10.174;2023-03-23T12:20:37;14.70;73.90
3298;DHT22;1661;53.572;10.174;2023-03-23T12:23:18;14.70;74.40
3298;DHT22;1661;53.572;10.174;2023-03-23T12:29:05;14.80;75.10
3298;DHT22;1661;53.572;10.174;2023-03-23T12:31:40;14.80;74.60
3298;DHT22;1661;53.572;10.174;2023-03-23T12:34:16;14.60;74.90
3298;DHT22;1661;53.572;10.174;2023-03-23T12:36:55;14.50;74.70
3298;DHT22;1661;53.572;10.174;2023-03-23T12:39:54;14.50;74.70
3298;DHT22;1661;53.572;10.174;2023-03-23T12:42:28;14.50;75.40
3298;DHT22;1661;53.572;10.174;2023-03-23T12:45:02;14.50;75.90
3298;DHT22;1661;53.572;10.174;2023-03-23T12:47:39;14.50;76.70
3298;DHT22;1661;53.572;10.174;2023-03-23T12:50:15;14.60;77.90
3298;DHT22;1661;53.572;10.174;2023-03-23T12:52:49;14.60;78.60
3298;DHT22;1661;53.572;10.174;2023-03-23T12:55:21;14.60;78.80
3298;DHT22;1661;53.572;10.174;2023-03-23T12:57:54;14.60;78.60
3298;DHT22;1661;53.572;10.174;2023-03-23T13:00:26;14.60;78.80
3298;DHT22;1661;53.572;10.174;2023-03-23T13:03:00;14.50;79.10
3298;DHT22;1661;53.572;10.174;2023-03-23T13:05:35;14.50;79.20
3298;DHT22;1661;53.572;10.174;2023-03-23T13:08:07;14.40;79.10
3298;DHT22;1661;53.572;10.174;2023-03-23T13:10:40;14.40;79.10
3298;DHT22;1661;53.572;10.174;2023-03-23T13:13:13;14.40;79.30
3298;DHT22;1661;53.572;10.174;2023-03-23T13:15:57;14.50;78.90
3298;DHT22;1661;53.572;10.174;2023-03-23T13:18:40;14.60;78.70
3298;DHT22;1661;53.572;10.174;2023-03-23T13:21:14;14.80;78.10
3298;DHT22;1661;53.572;10.174;2023-03-23T13:23:46;15.00;77.30
3298;DHT22;1661;53.572;10.174;2023-03-23T13:26:16;15.10;76.40
3298;DHT22;1661;53.572;10.174;2023-03-23T13:28:57;15.20;75.80
3298;DHT22;1661;53.572;10.174;2023-03-23T13:31:29;15.10;75.10
3298;DHT22;1661;53.572;10.174;2023-03-23T13:34:03;15.10;72.80
3298;DHT22;1661;53.572;10.174;2023-03-23T13:36:35;15.00;74.20
3298;DHT22;1661;53.572;10.174;2023-03-23T13:39:05;15.00;74.30
3298;DHT22;1661;53.572;10.174;2023-03-23T13:41:34;15.00;74.60
3298;DHT22;1661;53.572;10.174;2023-03-23T13:44:20;15.00;74.40
3298;DHT22;1661;53.572;10.174;2023-03-23T13:47:05;15.10;74.70
3298;DHT22;1661;53.572;10.174;2023-03-23T13:49:45;15.10;74.50
3298;DHT22;1661;53.572;10.174;2023-03-23T13:52:21;15.10;73.70
3298;DHT22;1661;53.572;10.174;2023-03-23T13:54:51;15.10;73.40
3298;DHT22;1661;53.572;10.174;2023-03-23T13:57:37;15.00;73.00
3298;DHT22;1661;53.572;10.174;2023-03-23T14:00:31;15.00;73.10
3298;DHT22;1661;53.572;10.174;2023-03-23T14:03:01;15.10;73.10
3298;DHT22;1661;53.572;10.174;2023-03-23T14:05:35;15.10;73.00
3298;DHT22;1661;53.572;10.174;2023-03-23T14:08:11;15.00;72.50
3298;DHT22;1661;53.572;10.174;2023-03-23T14:10:50;15.00;72.30
3298;DHT22;1661;53.572;10.174;2023-03-23T14:13:24;14.90;72.20
3298;DHT22;1661;53.572;10.174;2023-03-23T14:15:57;14.80;72.90
3298;DHT22;1661;53.572;10.174;2023-03-23T14:18:37;14.90;72.90
3298;DHT22;1661;53.572;10.174;2023-03-23T14:21:15;14.90;73.00
3298;DHT22;1661;53.572;10.174;2023-03-23T14:23:42;14.90;74.00
3298;DHT22;1661;53.572;10.174;2023-03-23T14:26:16;14.50;75.30
3298;DHT22;1661;53.572;10.174;2023-03-23T14:28:45;13.90;78.90
3298;DHT22;1661;53.572;10.174;2023-03-23T14:31:19;13.70;79.30
3298;DHT22;1661;53.572;10.174;2023-03-23T14:33:47;13.40;80.10
3298;DHT22;1661;53.572;10.174;2023-03-23T14:36:20;13.30;80.40
3298;DHT22;1661;53.572;10.174;2023-03-23T14:38:47;13.20;80.70
3298;DHT22;1661;53.572;10.174;2023-03-23T14:41:14;13.20;81.20
3298;DHT22;1661;53.572;10.174;2023-03-23T14:43:41;13.30;79.80
3298;DHT22;1661;53.572;10.174;2023-03-23T14:46:10;13.30;81.40
3298;DHT22;1661;53.572;10.174;2023-03-23T14:48:39;13.40;82.70
3298;DHT22;1661;53.572;10.174;2023-03-23T14:51:06;13.60;81.40
3298;DHT22;1661;53.572;10.174;2023-03-23T14:53:36;13.80;79.80
3298;DHT22;1661;53.572;10.174;2023-03-23T14:56:10;14.10;80.20
3298;DHT22;1661;53.572;10.174;2023-03-23T14:58:38;14.20;78.10
3298;DHT22;1661;53.572;10.174;2023-03-23T15:01:07;14.40;78.80
3298;DHT22;1661;53.572;10.174;2023-03-23T15:03:37;14.50;77.60
3298;DHT22;1661;53.572;10.174;2023-03-23T15:06:08;14.70;76.80
3298;DHT22;1661;53.572;10.174;2023-03-23T15:08:38;14.80;76.00
3298;DHT22;1661;53.572;10.174;2023-03-23T15:11:09;15.00;75.00
3298;DHT22;1661;53.572;10.174;2023-03-23T15:13:44;15.00;74.70
3298;DHT22;1661;53.572;10.174;2023-03-23T15:16:14;15.00;74.00
3298;DHT22;1661;53.572;10.174;2023-03-23T15:18:48;15.10;74.40
3298;DHT22;1661;53.572;10.174;2023-03-23T15:21:23;15.10;72.70
3298;DHT22;1661;53.572;10.174;2023-03-23T15:23:52;15.10;73.70
3298;DHT22;1661;53.572;10.174;2023-03-23T15:26:27;15.00;72.70
3298;DHT22;1661;53.572;10.174;2023-03-23T15:29:03;14.90;73.30
3298;DHT22;1661;53.572;10.174;2023-03-23T15:31:30;14.90;73.70
3298;DHT22;1661;53.572;10.174;2023-03-23T15:34:02;14.80;73.60
3298;DHT22;1661;53.572;10.174;2023-03-23T15:36:33;14.80;73.70
3298;DHT22;1661;53.572;10.174;2023-03-23T15:39:02;14.80;73.30
3298;DHT22;1661;53.572;10.174;2023-03-23T15:41:45;14.80;74.30
3298;DHT22;1661;53.572;10.174;2023-03-23T15:44:21;14.80;74.40
3298;DHT22;1661;53.572;10.174;2023-03-23T15:46:49;14.80;74.30
3298;DHT22;1661;53.572;10.174;2023-03-23T15:49:16;14.80;74.60
3298;DHT22;1661;53.572;10.174;2023-03-23T15:51:44;14.70;74.50
3298;DHT22;1661;53.572;10.174;2023-03-23T15:54:14;14.70;76.40
3298;DHT22;1661;53.572;10.174;2023-03-23T15:56:42;14.80;75.60
3298;DHT22;1661;53.572;10.174;2023-03-23T15:59:10;14.90;75.00
3298;DHT22;1661;53.572;10.174;2023-03-23T16:01:39;14.90;73.70
3298;DHT22;1661;53.572;10.174;2023-03-23T16:04:08;15.00;73.90
3298;DHT22;1661;53.572;10.174;2023-03-23T16:06:36;15.00;74.10
3298;DHT22;1661;53.572;10.174;2023-03-23T16:09:04;15.10;73.00
3298;DHT22;1661;53.572;10.174;2023-03-23T16:11:32;15.10;72.00
3298;DHT22;1661;53.572;10.174;2023-03-23T16:14:00;15.00;72.30